TAF PAIL
AMD PAIL 270628Z 2706/2806 31008KT P6SM FEW030 AMD NOT SKED=
METAR PAIL
WC PAIL
WS PAIL
WV PAIL